Time;durP1;ratioP1;P1;durP2;ratioP2;P2;SDS_P1;SDS_P2;PMS_P1;PMS_P2;Temp;Humidity;BMP_temperature;BMP_pressure;BME280_temperature;BME280_humidity;BME280_pressure;Samples;Min_cycle;Max_cycle;Signal;HPM_P1;HPM_P2
2021/10/31 00:01:42;;;;;;;;;;;12.50;99.90;;;;;;5036438;28;19905;-78
2021/10/31 00:04:08;;;;;;;;;;;12.50;99.90;;;;;;5036649;28;19915;-78
2021/10/31 00:06:34;;;;;;;;;;;12.50;99.90;;;;;;5036479;28;19905;-77
2021/10/31 00:08:59;;;;;;;;;;;12.50;99.90;;;;;;5036356;28;19992;-78
2021/10/31 00:11:25;;;;;;;;;;;12.60;99.90;;;;;;5036414;28;20332;-77
2021/10/31 00:13:50;;;;;;;;;;;12.50;99.90;;;;;;5036792;28;20258;-78
2021/10/31 00:16:16;;;;;;;;;;;12.50;99.90;;;;;;5051565;28;19998;-77
2021/10/31 00:18:42;;;;;;;;;;;12.50;99.90;;;;;;5036190;28;20274;-78
2021/10/31 00:21:07;;;;;;;;;;;12.40;99.90;;;;;;5034890;28;19971;-78
2021/10/31 00:23:33;;;;;;;;;;;12.40;99.90;;;;;;5034787;28;19905;-78
2021/10/31 00:25:59;;;;;;;;;;;12.40;99.90;;;;;;5036087;28;19916;-77
2021/10/31 00:28:25;;;;;;;;;;;12.40;99.90;;;;;;5036003;28;19912;-78
2021/10/31 00:30:51;;;;;;;;;;;12.40;99.90;;;;;;5036077;28;19944;-78
2021/10/31 00:33:17;;;;;;;;;;;12.40;99.90;;;;;;5036058;28;19905;-78
2021/10/31 00:35:42;;;;;;;;;;;12.40;99.90;;;;;;5035882;28;19911;-77
2021/10/31 00:38:08;;;;;;;;;;;12.30;99.90;;;;;;5035702;28;20340;-77
2021/10/31 00:40:34;;;;;;;;;;;12.40;99.90;;;;;;5036150;28;19905;-77
2021/10/31 00:42:59;;;;;;;;;;;12.50;99.90;;;;;;5036305;28;19905;-79
2021/10/31 00:45:25;;;;;;;;;;;12.50;99.90;;;;;;5035653;28;19912;-78
2021/10/31 00:47:52;;;;;;;;;;;12.50;99.90;;;;;;5034380;28;19943;-77
2021/10/31 00:50:18;;;;;;;;;;;12.60;99.90;;;;;;5035610;28;19912;-78
2021/10/31 00:52:44;;;;;;;;;;;12.60;99.90;;;;;;5035690;28;20465;-79
2021/10/31 00:55:10;;;;;;;;;;;12.60;99.90;;;;;;5035509;28;20007;-79
2021/10/31 00:57:36;;;;;;;;;;;12.70;99.90;;;;;;5035441;28;19948;-77
2021/10/31 01:00:04;;;;;;;;;;;12.70;99.90;;;;;;5034867;28;19907;-77
2021/10/31 01:02:29;;;;;;;;;;;12.70;99.90;;;;;;5035091;28;19966;-77
2021/10/31 01:04:57;;;;;;;;;;;12.70;99.90;;;;;;5035358;28;19905;-78
2021/10/31 01:07:34;;;;;;;;;;;12.60;99.90;;;;;;5035201;28;19905;-78
2021/10/31 01:09:59;;;;;;;;;;;12.70;99.90;;;;;;5035218;28;19925;-78
2021/10/31 01:12:31;;;;;;;;;;;12.70;99.90;;;;;;5035370;28;19928;-77
2021/10/31 01:15:15;;;;;;;;;;;12.70;99.90;;;;;;5035142;28;19912;-77
2021/10/31 01:17:40;;;;;;;;;;;12.70;99.90;;;;;;5033695;28;19915;-77
2021/10/31 01:20:24;;;;;;;;;;;12.70;99.90;;;;;;5033795;28;19904;-78
2021/10/31 01:23:05;;;;;;;;;;;12.70;99.90;;;;;;5035057;28;19944;-77
2021/10/31 01:25:37;;;;;;;;;;;12.70;99.90;;;;;;5034996;28;20412;-77
2021/10/31 01:28:21;;;;;;;;;;;12.70;99.90;;;;;;5034954;28;20381;-78
2021/10/31 01:30:47;;;;;;;;;;;12.60;99.90;;;;;;5033595;28;19912;-77
2021/10/31 01:33:31;;;;;;;;;;;12.70;99.90;;;;;;5034811;28;19905;-78
2021/10/31 01:36:16;;;;;;;;;;;12.70;99.90;;;;;;5034778;28;19912;-77
2021/10/31 01:39:00;;;;;;;;;;;12.70;99.90;;;;;;5033441;28;19909;-77
2021/10/31 01:41:28;;;;;;;;;;;12.70;99.90;;;;;;5034668;28;20416;-77
2021/10/31 01:43:59;;;;;;;;;;;12.80;99.90;;;;;;5034631;28;19912;-78
2021/10/31 01:46:40;;;;;;;;;;;12.80;99.90;;;;;;5034715;28;20405;-78
2021/10/31 01:49:12;;;;;;;;;;;12.70;99.90;;;;;;5034676;28;19905;-77
2021/10/31 01:52:04;;;;;;;;;;;12.70;99.90;;;;;;5033235;28;19928;-78
2021/10/31 01:54:33;;;;;;;;;;;12.70;99.90;;;;;;5033160;28;19916;-78
2021/10/31 01:57:01;;;;;;;;;;;12.80;99.90;;;;;;5033083;28;19917;-78
2021/10/31 01:59:41;;;;;;;;;;;12.80;99.90;;;;;;5034331;28;19905;-78
2021/10/31 02:02:08;;;;;;;;;;;12.80;99.90;;;;;;5034273;28;20317;-78
2021/10/31 02:04:35;;;;;;;;;;;12.80;99.90;;;;;;5034279;28;19905;-78
2021/10/31 02:07:01;;;;;;;;;;;12.70;99.90;;;;;;5034466;28;19905;-78
2021/10/31 02:09:29;;;;;;;;;;;12.70;99.90;;;;;;5033946;28;20274;-78
2021/10/31 02:11:55;;;;;;;;;;;12.70;99.90;;;;;;5032751;28;19905;-76
2021/10/31 02:14:21;;;;;;;;;;;12.70;99.90;;;;;;5032861;28;19909;-77
2021/10/31 02:16:47;;;;;;;;;;;12.60;99.90;;;;;;5033973;28;19909;-77
2021/10/31 02:19:20;;;;;;;;;;;12.70;99.90;;;;;;5033983;28;19951;-77
2021/10/31 02:21:47;;;;;;;;;;;12.70;99.90;;;;;;5033955;28;20000;-78
2021/10/31 02:24:13;;;;;;;;;;;12.70;99.90;;;;;;5033944;28;19995;-76
2021/10/31 02:26:39;;;;;;;;;;;12.70;99.90;;;;;;5033861;28;19945;-77
2021/10/31 02:29:08;;;;;;;;;;;12.70;99.90;;;;;;5034118;28;19905;-76
2021/10/31 02:31:34;;;;;;;;;;;12.70;99.90;;;;;;5033848;28;19996;-78
2021/10/31 02:33:59;;;;;;;;;;;12.70;99.90;;;;;;5033766;28;19931;-77
2021/10/31 02:36:25;;;;;;;;;;;12.70;99.90;;;;;;5033744;28;19905;-78
2021/10/31 02:38:51;;;;;;;;;;;12.70;99.90;;;;;;5033661;28;19996;-78
2021/10/31 02:41:17;;;;;;;;;;;12.80;99.90;;;;;;5033708;28;19905;-78
2021/10/31 02:43:42;;;;;;;;;;;12.80;99.90;;;;;;5032365;28;19905;-77
2021/10/31 02:46:08;;;;;;;;;;;12.90;99.90;;;;;;5033993;28;20285;-77
2021/10/31 02:48:36;;;;;;;;;;;12.90;99.90;;;;;;5032522;28;19905;-78
2021/10/31 02:51:08;;;;;;;;;;;12.90;99.90;;;;;;5033771;28;19939;-77
2021/10/31 02:53:33;;;;;;;;;;;12.90;99.90;;;;;;5034141;28;19912;-77
2021/10/31 02:56:13;;;;;;;;;;;12.90;99.90;;;;;;5033954;28;19909;-77
2021/10/31 02:58:47;;;;;;;;;;;12.90;99.90;;;;;;5032155;28;19952;-77
2021/10/31 03:01:15;;;;;;;;;;;12.90;99.90;;;;;;5033474;28;19991;-77
2021/10/31 03:03:41;;;;;;;;;;;13.00;99.90;;;;;;5033526;28;20327;-77
2021/10/31 03:06:06;;;;;;;;;;;13.10;99.90;;;;;;5033610;28;19905;-78
2021/10/31 03:08:32;;;;;;;;;;;13.10;99.90;;;;;;5032211;28;19905;-78
2021/10/31 03:11:00;;;;;;;;;;;13.00;99.90;;;;;;5033327;28;20011;-77
2021/10/31 03:13:26;;;;;;;;;;;13.00;99.90;;;;;;5033411;28;19905;-77
2021/10/31 03:15:52;;;;;;;;;;;13.00;99.90;;;;;;5033648;28;19920;-78
2021/10/31 03:18:17;;;;;;;;;;;13.00;99.90;;;;;;5033282;28;19913;-78
2021/10/31 03:20:43;;;;;;;;;;;13.10;99.90;;;;;;5033396;28;19988;-78
2021/10/31 03:23:09;;;;;;;;;;;13.10;99.90;;;;;;5033310;28;19909;-78
2021/10/31 03:25:34;;;;;;;;;;;13.20;99.90;;;;;;5035899;28;20262;-77
2021/10/31 03:28:00;;;;;;;;;;;13.30;99.90;;;;;;5052520;28;19905;-78
2021/10/31 03:30:26;;;;;;;;;;;13.40;99.90;;;;;;5037177;28;19952;-78
2021/10/31 03:32:51;;;;;;;;;;;13.40;99.90;;;;;;5037164;28;19967;-78
2021/10/31 03:35:17;;;;;;;;;;;13.50;99.90;;;;;;5037397;28;20400;-77
2021/10/31 03:37:43;;;;;;;;;;;13.50;99.90;;;;;;5036975;28;19909;-78
2021/10/31 03:40:09;;;;;;;;;;;13.50;99.90;;;;;;5036930;28;20285;-78
2021/10/31 03:42:35;;;;;;;;;;;13.60;99.90;;;;;;5036973;28;19906;-78
2021/10/31 03:45:01;;;;;;;;;;;13.60;99.90;;;;;;5035611;28;19912;-78
2021/10/31 03:47:28;;;;;;;;;;;13.70;99.90;;;;;;5052152;28;20289;-77
2021/10/31 03:49:54;;;;;;;;;;;13.60;99.90;;;;;;5052349;28;19949;-78
2021/10/31 03:52:19;;;;;;;;;;;13.70;99.90;;;;;;5036733;28;20285;-78
2021/10/31 03:54:45;;;;;;;;;;;13.80;99.90;;;;;;5036686;28;19928;-77
2021/10/31 03:57:10;;;;;;;;;;;13.80;99.90;;;;;;5036554;28;19932;-78
2021/10/31 03:59:36;;;;;;;;;;;13.80;99.90;;;;;;5036591;28;19913;-78
2021/10/31 04:02:03;;;;;;;;;;;13.90;99.90;;;;;;5035255;28;19905;-77
2021/10/31 04:04:29;;;;;;;;;;;13.90;99.90;;;;;;5036407;28;19909;-77
2021/10/31 04:06:54;;;;;;;;;;;13.90;99.90;;;;;;5035189;28;19905;-78
2021/10/31 04:09:20;;;;;;;;;;;14.00;99.90;;;;;;5036227;28;19939;-77
2021/10/31 04:11:45;;;;;;;;;;;14.00;99.90;;;;;;5036544;28;19905;-77
2021/10/31 04:14:11;;;;;;;;;;;14.00;99.90;;;;;;5036352;28;20389;-76
2021/10/31 04:16:37;;;;;;;;;;;14.10;99.90;;;;;;5036271;28;19987;-78
2021/10/31 04:19:02;;;;;;;;;;;14.10;99.90;;;;;;5036218;28;19959;-77
2021/10/31 04:21:28;;;;;;;;;;;14.20;99.90;;;;;;5036290;28;19960;-77
2021/10/31 04:23:54;;;;;;;;;;;14.20;99.90;;;;;;5036151;28;19905;-76
2021/10/31 04:26:19;;;;;;;;;;;14.20;99.90;;;;;;5036090;28;20285;-77
2021/10/31 04:28:45;;;;;;;;;;;14.30;99.90;;;;;;5034758;28;20365;-78
2021/10/31 04:31:10;;;;;;;;;;;14.30;99.90;;;;;;5034627;28;20253;-80
2021/10/31 04:33:36;;;;;;;;;;;14.30;99.90;;;;;;5051173;28;19905;-82
2021/10/31 04:36:03;;;;;;;;;;;14.30;99.90;;;;;;5033255;28;19905;-81
2021/10/31 04:38:31;;;;;;;;;;;14.40;99.90;;;;;;5035844;28;19909;-80
2021/10/31 04:40:57;;;;;;;;;;;14.40;99.90;;;;;;5034472;28;19920;-80
2021/10/31 04:43:26;;;;;;;;;;;14.40;99.90;;;;;;5034371;28;19905;-81
2021/10/31 04:45:52;;;;;;;;;;;14.40;99.90;;;;;;5035543;28;20259;-80
2021/10/31 04:48:19;;;;;;;;;;;14.40;99.90;;;;;;5036033;28;19999;-80
2021/10/31 04:50:45;;;;;;;;;;;14.40;99.90;;;;;;5035738;28;19905;-82
2021/10/31 04:53:10;;;;;;;;;;;14.40;99.90;;;;;;5050805;28;20325;-80
2021/10/31 04:55:37;;;;;;;;;;;14.40;99.90;;;;;;5035607;28;19905;-81
2021/10/31 04:58:03;;;;;;;;;;;14.40;99.90;;;;;;5035436;28;19909;-80
2021/10/31 05:00:29;;;;;;;;;;;14.40;99.90;;;;;;5035368;28;20007;-79
2021/10/31 05:02:56;;;;;;;;;;;14.40;99.90;;;;;;5035336;28;20270;-78
2021/10/31 05:05:22;;;;;;;;;;;14.40;99.90;;;;;;5035406;28;19996;-81
2021/10/31 05:07:48;;;;;;;;;;;14.40;99.90;;;;;;5035282;28;20384;-79
2021/10/31 05:10:17;;;;;;;;;;;14.40;99.90;;;;;;5035058;28;19917;-79
2021/10/31 05:12:43;;;;;;;;;;;14.40;99.90;;;;;;5035159;28;19912;-81
2021/10/31 05:15:09;;;;;;;;;;;14.40;99.90;;;;;;5035321;28;19913;-79
2021/10/31 05:17:35;;;;;;;;;;;14.50;99.90;;;;;;5034988;28;20350;-78
2021/10/31 05:20:01;;;;;;;;;;;14.50;99.90;;;;;;5035037;28;19991;-79
2021/10/31 05:22:27;;;;;;;;;;;14.50;99.90;;;;;;5035091;28;19909;-77
2021/10/31 05:24:52;;;;;;;;;;;14.40;99.90;;;;;;5034980;28;19906;-78
2021/10/31 05:27:18;;;;;;;;;;;14.40;99.90;;;;;;5035176;28;19959;-78
2021/10/31 05:29:44;;;;;;;;;;;14.50;99.90;;;;;;5034850;28;19912;-79
2021/10/31 05:32:09;;;;;;;;;;;14.50;99.90;;;;;;5034821;28;19905;-78
2021/10/31 05:34:35;;;;;;;;;;;14.50;99.90;;;;;;5034759;28;19905;-77
2021/10/31 05:37:01;;;;;;;;;;;14.50;99.90;;;;;;5033364;28;19959;-77
2021/10/31 05:39:26;;;;;;;;;;;14.50;99.90;;;;;;5034590;28;19909;-78
2021/10/31 05:41:52;;;;;;;;;;;14.50;99.90;;;;;;5034578;28;19906;-79
2021/10/31 05:44:17;;;;;;;;;;;14.40;99.90;;;;;;5034645;28;20419;-78
2021/10/31 05:46:43;;;;;;;;;;;14.40;99.90;;;;;;5034083;28;19905;-78
2021/10/31 05:49:09;;;;;;;;;;;14.40;99.90;;;;;;5034631;28;19909;-78
2021/10/31 05:51:34;;;;;;;;;;;14.40;99.90;;;;;;5034439;28;19928;-76
2021/10/31 05:54:00;;;;;;;;;;;14.40;99.90;;;;;;5033088;28;19905;-78
2021/10/31 05:56:26;;;;;;;;;;;14.40;99.90;;;;;;5034214;28;19906;-77
2021/10/31 05:58:52;;;;;;;;;;;14.40;99.90;;;;;;5034275;28;19912;-78
2021/10/31 06:01:17;;;;;;;;;;;14.30;99.90;;;;;;5034506;28;19905;-77
2021/10/31 06:03:43;;;;;;;;;;;14.30;99.90;;;;;;5034336;28;19905;-75
2021/10/31 06:06:09;;;;;;;;;;;14.20;99.90;;;;;;5034191;28;19916;-75
2021/10/31 06:08:34;;;;;;;;;;;14.10;99.90;;;;;;5034171;28;19954;-75
2021/10/31 06:11:00;;;;;;;;;;;14.00;99.90;;;;;;5032358;28;19917;-75
2021/10/31 06:13:26;;;;;;;;;;;14.00;99.90;;;;;;5034357;28;19912;-75
2021/10/31 06:15:51;;;;;;;;;;;14.00;99.90;;;;;;5034097;28;19905;-77
2021/10/31 06:18:18;;;;;;;;;;;13.80;99.90;;;;;;5033949;28;19962;-78
2021/10/31 06:20:44;;;;;;;;;;;13.80;99.90;;;;;;5033867;28;19936;-79
2021/10/31 06:23:10;;;;;;;;;;;13.70;99.90;;;;;;5034142;28;19905;-81
2021/10/31 06:25:36;;;;;;;;;;;13.70;99.90;;;;;;5032654;28;19909;-81
2021/10/31 06:28:01;;;;;;;;;;;13.60;99.90;;;;;;5033955;28;20400;-81
2021/10/31 06:30:27;;;;;;;;;;;13.60;99.90;;;;;;5033806;28;19905;-80
2021/10/31 06:32:52;;;;;;;;;;;13.70;99.90;;;;;;5033755;28;19937;-80
2021/10/31 06:35:18;;;;;;;;;;;13.70;99.90;;;;;;5032372;28;19905;-80
2021/10/31 06:37:44;;;;;;;;;;;13.60;99.90;;;;;;5032293;28;20053;-80
2021/10/31 06:40:10;;;;;;;;;;;13.60;99.90;;;;;;5033580;28;19905;-80
2021/10/31 06:42:36;;;;;;;;;;;13.60;99.90;;;;;;5033770;28;19970;-79
2021/10/31 06:45:01;;;;;;;;;;;13.60;99.90;;;;;;5032308;28;19912;-79
2021/10/31 06:47:27;;;;;;;;;;;13.60;99.90;;;;;;5033610;28;19912;-79
2021/10/31 06:49:53;;;;;;;;;;;13.60;99.90;;;;;;5033586;28;20381;-79
2021/10/31 06:52:19;;;;;;;;;;;13.70;99.90;;;;;;5033566;28;19999;-80
2021/10/31 06:54:44;;;;;;;;;;;13.70;99.90;;;;;;5034021;28;20284;-80
2021/10/31 06:57:10;;;;;;;;;;;13.70;99.90;;;;;;5033386;28;19909;-78
2021/10/31 06:59:36;;;;;;;;;;;13.70;99.90;;;;;;5036056;28;20400;-79
2021/10/31 07:02:02;;;;;;;;;;;13.70;99.90;;;;;;5037561;28;19990;-80
2021/10/31 07:04:29;;;;;;;;;;;13.70;99.90;;;;;;5037618;28;19912;-80
2021/10/31 07:06:55;;;;;;;;;;;13.80;99.90;;;;;;5037547;28;19905;-81
2021/10/31 07:09:20;;;;;;;;;;;13.70;99.90;;;;;;5035980;28;20293;-81
2021/10/31 07:11:46;;;;;;;;;;;13.70;99.90;;;;;;5037650;28;19984;-81
2021/10/31 07:14:12;;;;;;;;;;;13.70;99.90;;;;;;5052635;28;19904;-81
2021/10/31 07:16:37;;;;;;;;;;;13.70;99.90;;;;;;5037470;28;19912;-82
2021/10/31 07:19:03;;;;;;;;;;;13.70;99.90;;;;;;5036016;28;19967;-82
2021/10/31 07:21:28;;;;;;;;;;;13.70;99.90;;;;;;5037656;28;19909;-82
2021/10/31 07:23:54;;;;;;;;;;;13.70;99.90;;;;;;5037177;28;20336;-81
2021/10/31 07:26:20;;;;;;;;;;;13.70;99.90;;;;;;5052489;28;19905;-80
2021/10/31 07:28:45;;;;;;;;;;;13.70;99.90;;;;;;5035859;28;19913;-80
2021/10/31 07:31:12;;;;;;;;;;;13.60;99.90;;;;;;5037068;28;20381;-83
2021/10/31 07:33:38;;;;;;;;;;;13.70;99.90;;;;;;5037153;28;19905;-82
2021/10/31 07:36:04;;;;;;;;;;;13.60;99.90;;;;;;5037230;28;19905;-86
2021/10/31 07:38:30;;;;;;;;;;;13.60;99.90;;;;;;5052296;28;20379;-83
2021/10/31 07:40:55;;;;;;;;;;;13.60;99.90;;;;;;5035599;28;19912;-85
2021/10/31 07:43:21;;;;;;;;;;;13.60;99.90;;;;;;5035589;28;19905;-84
2021/10/31 07:45:47;;;;;;;;;;;13.50;99.90;;;;;;5035701;28;19955;-85
2021/10/31 07:48:14;;;;;;;;;;;13.60;99.90;;;;;;5035684;28;19936;-85
2021/10/31 07:50:39;;;;;;;;;;;13.60;99.90;;;;;;5035507;28;20004;-85
2021/10/31 07:53:07;;;;;;;;;;;13.60;99.90;;;;;;5035424;28;19951;-83
2021/10/31 07:55:34;;;;;;;;;;;13.60;99.90;;;;;;5036617;28;19912;-83
2021/10/31 07:58:00;;;;;;;;;;;13.60;99.90;;;;;;5035259;28;19913;-83
2021/10/31 08:00:27;;;;;;;;;;;13.70;99.90;;;;;;5036553;28;19912;-81
2021/10/31 08:02:55;;;;;;;;;;;13.70;99.90;;;;;;5036673;28;19904;-80
2021/10/31 08:05:22;;;;;;;;;;;13.70;99.90;;;;;;5035118;28;19919;-81
2021/10/31 08:07:48;;;;;;;;;;;13.70;99.90;;;;;;5036644;28;20281;-81
2021/10/31 08:10:13;;;;;;;;;;;13.80;99.90;;;;;;5035835;28;20000;-81
2021/10/31 08:12:39;;;;;;;;;;;13.70;99.90;;;;;;5036512;28;20370;-81
2021/10/31 08:15:05;;;;;;;;;;;13.80;99.90;;;;;;5034982;28;19955;-82
2021/10/31 08:17:30;;;;;;;;;;;13.80;99.90;;;;;;5036178;28;20335;-82
2021/10/31 08:19:56;;;;;;;;;;;13.80;99.90;;;;;;5036188;28;20419;-83
2021/10/31 08:22:21;;;;;;;;;;;13.90;99.90;;;;;;5036347;28;19911;-84
2021/10/31 08:24:47;;;;;;;;;;;13.90;99.90;;;;;;5036444;28;20297;-83
2021/10/31 08:27:15;;;;;;;;;;;13.90;99.90;;;;;;5036084;28;19988;-82
2021/10/31 08:29:41;;;;;;;;;;;13.50;99.90;;;;;;5036503;28;20000;-83
2021/10/31 08:32:07;;;;;;;;;;;13.20;99.90;;;;;;5036147;28;19912;-82
2021/10/31 08:34:33;;;;;;;;;;;13.10;99.90;;;;;;5051335;28;20348;-83
2021/10/31 08:36:58;;;;;;;;;;;12.90;99.90;;;;;;5034419;28;20412;-82
2021/10/31 08:39:24;;;;;;;;;;;12.90;99.90;;;;;;5035793;28;19905;-83
2021/10/31 08:41:50;;;;;;;;;;;12.80;99.90;;;;;;5036160;28;20319;-82
2021/10/31 08:44:15;;;;;;;;;;;12.80;99.90;;;;;;5036043;28;20361;-82
2021/10/31 08:46:41;;;;;;;;;;;12.70;99.90;;;;;;5035719;28;19905;-82
2021/10/31 08:49:07;;;;;;;;;;;12.80;99.90;;;;;;5034393;28;19912;-82
2021/10/31 08:51:32;;;;;;;;;;;12.80;99.90;;;;;;5035624;28;19912;-81
2021/10/31 08:53:58;;;;;;;;;;;12.90;99.90;;;;;;5034256;28;19905;-82
2021/10/31 08:56:25;;;;;;;;;;;12.90;99.90;;;;;;5035515;28;19998;-82
2021/10/31 08:58:51;;;;;;;;;;;12.90;99.90;;;;;;5035412;28;19931;-82
2021/10/31 09:01:16;;;;;;;;;;;13.00;99.90;;;;;;5035728;28;20389;-82
2021/10/31 09:03:42;;;;;;;;;;;12.90;99.90;;;;;;5035971;28;19956;-82
2021/10/31 09:06:09;;;;;;;;;;;12.90;99.90;;;;;;5035570;28;19905;-81
2021/10/31 09:08:35;;;;;;;;;;;12.90;99.90;;;;;;5035350;28;19937;-82
2021/10/31 09:11:01;;;;;;;;;;;12.90;99.90;;;;;;5035855;28;19924;-82
2021/10/31 09:13:27;;;;;;;;;;;12.90;99.90;;;;;;5035533;28;19911;-82
2021/10/31 09:15:52;;;;;;;;;;;12.80;99.90;;;;;;5033828;28;19995;-81
2021/10/31 09:18:19;;;;;;;;;;;12.70;99.90;;;;;;5035156;28;20262;-81
2021/10/31 09:20:44;;;;;;;;;;;12.80;99.90;;;;;;5033585;28;19909;-81
2021/10/31 09:23:13;;;;;;;;;;;12.80;99.90;;;;;;5034317;28;19905;-81
2021/10/31 09:25:39;;;;;;;;;;;12.80;99.90;;;;;;5034842;28;19916;-82
2021/10/31 09:28:06;;;;;;;;;;;12.80;99.90;;;;;;5033545;28;19905;-81
2021/10/31 09:30:33;;;;;;;;;;;12.80;99.90;;;;;;5034792;28;19905;-81
2021/10/31 09:32:59;;;;;;;;;;;12.80;99.90;;;;;;5034737;28;19984;-81
2021/10/31 09:35:26;;;;;;;;;;;12.80;99.90;;;;;;5033399;28;19944;-81
2021/10/31 09:37:56;;;;;;;;;;;12.90;99.90;;;;;;5034492;28;19909;-80
2021/10/31 09:40:22;;;;;;;;;;;12.80;99.90;;;;;;5034688;28;19905;-80
2021/10/31 09:42:49;;;;;;;;;;;12.80;99.90;;;;;;5034635;28;19905;-80
2021/10/31 09:45:15;;;;;;;;;;;12.90;99.90;;;;;;5033248;28;20444;-79
2021/10/31 09:47:41;;;;;;;;;;;12.90;99.90;;;;;;5034495;28;19988;-80
2021/10/31 09:50:07;;;;;;;;;;;13.00;99.90;;;;;;5034738;28;19905;-79
2021/10/31 09:52:33;;;;;;;;;;;13.00;99.90;;;;;;5049745;28;19971;-79
2021/10/31 09:54:59;;;;;;;;;;;13.20;99.90;;;;;;5034425;28;20381;-80
2021/10/31 09:57:25;;;;;;;;;;;14.40;99.90;;;;;;5049479;28;19909;-80
2021/10/31 09:59:55;;;;;;;;;;;15.00;99.90;;;;;;5034404;28;19959;-80
2021/10/31 10:02:50;;;;;;;;;;;14.90;99.90;;;;;;5034363;28;19931;-80
2021/10/31 10:05:23;;;;;;;;;;;14.90;99.90;;;;;;5033857;28;19912;-79
2021/10/31 10:08:07;;;;;;;;;;;14.90;99.90;;;;;;5032868;28;20316;-80
2021/10/31 10:10:40;;;;;;;;;;;15.10;99.90;;;;;;5032612;28;19939;-80
2021/10/31 10:13:20;;;;;;;;;;;16.00;99.90;;;;;;5034196;28;19909;-79
2021/10/31 10:15:46;;;;;;;;;;;16.10;99.90;;;;;;5034244;28;19905;-79
2021/10/31 10:18:26;;;;;;;;;;;16.00;99.90;;;;;;5033960;28;20329;-79
2021/10/31 10:20:52;;;;;;;;;;;16.20;99.90;;;;;;5034397;28;19905;-79
2021/10/31 10:23:19;;;;;;;;;;;16.30;99.90;;;;;;5033901;28;19996;-79
2021/10/31 10:25:45;;;;;;;;;;;16.50;99.90;;;;;;5049311;28;20008;-80
2021/10/31 10:28:23;;;;;;;;;;;16.30;99.90;;;;;;5049137;28;19931;-79
2021/10/31 10:30:49;;;;;;;;;;;16.20;99.90;;;;;;5049158;28;19991;-80
2021/10/31 10:33:21;;;;;;;;;;;17.50;99.90;;;;;;5049048;28;19940;-80
2021/10/31 10:35:51;;;;;;;;;;;18.70;99.90;;;;;;5033745;28;19905;-79
2021/10/31 10:38:17;;;;;;;;;;;19.60;99.90;;;;;;5048792;28;19913;-79
2021/10/31 10:40:43;;;;;;;;;;;19.30;99.90;;;;;;5033670;28;20322;-79
2021/10/31 10:43:09;;;;;;;;;;;18.50;99.90;;;;;;5033644;28;19905;-79
2021/10/31 10:45:38;;;;;;;;;;;18.60;99.90;;;;;;5033887;28;19905;-79
2021/10/31 10:48:05;;;;;;;;;;;18.10;99.90;;;;;;5048904;28;19913;-78
2021/10/31 10:50:34;;;;;;;;;;;17.50;99.90;;;;;;5032306;28;19912;-77
2021/10/31 10:52:59;;;;;;;;;;;17.40;99.90;;;;;;5032271;28;20373;-78
2021/10/31 10:55:27;;;;;;;;;;;17.70;99.90;;;;;;5048794;28;19911;-79
2021/10/31 10:57:54;;;;;;;;;;;19.10;99.90;;;;;;5032098;28;19909;-79
2021/10/31 11:00:21;;;;;;;;;;;19.80;99.90;;;;;;5032171;28;19909;-78
2021/10/31 11:03:07;;;;;;;;;;;22.20;99.90;;;;;;5033490;28;19905;-79
2021/10/31 11:05:37;;;;;;;;;;;23.20;99.90;;;;;;5031741;28;19912;-79
2021/10/31 11:08:10;;;;;;;;;;;22.70;99.70;;;;;;5033723;28;19909;-78
2021/10/31 11:10:36;;;;;;;;;;;22.10;95.70;;;;;;5031971;28;20408;-79
2021/10/31 11:13:04;;;;;;;;;;;23.90;99.80;;;;;;5033419;28;19909;-78
2021/10/31 11:15:31;;;;;;;;;;;23.90;95.60;;;;;;5033575;28;20422;-78
2021/10/31 11:17:57;;;;;;;;;;;25.80;93.10;;;;;;5033280;28;19913;-78
2021/10/31 11:20:26;;;;;;;;;;;24.90;88.50;;;;;;5033386;28;19912;-78
2021/10/31 11:22:54;;;;;;;;;;;25.20;88.10;;;;;;5032038;28;20003;-77
2021/10/31 11:25:21;;;;;;;;;;;26.00;76.00;;;;;;5033412;28;19909;-78
2021/10/31 11:27:51;;;;;;;;;;;27.40;77.60;;;;;;5033841;28;19905;-79
2021/10/31 11:30:17;;;;;;;;;;;27.90;78.80;;;;;;5033851;28;19948;-78
2021/10/31 11:32:43;;;;;;;;;;;27.80;71.20;;;;;;5033960;28;20381;-78
2021/10/31 11:35:11;;;;;;;;;;;27.90;72.00;;;;;;5033734;28;19909;-78
2021/10/31 11:37:54;;;;;;;;;;;27.60;70.80;;;;;;5034195;28;19909;-78
2021/10/31 11:40:24;;;;;;;;;;;28.10;68.90;;;;;;5032634;28;19905;-79
2021/10/31 11:42:50;;;;;;;;;;;28.20;62.90;;;;;;5033948;28;19909;-78
2021/10/31 11:45:18;;;;;;;;;;;26.20;65.00;;;;;;5035414;28;19909;-77
2021/10/31 11:47:45;;;;;;;;;;;27.00;66.60;;;;;;5037205;28;19908;-78
2021/10/31 11:50:17;;;;;;;;;;;27.50;65.60;;;;;;5036941;28;19912;-78
2021/10/31 11:52:44;;;;;;;;;;;24.70;67.30;;;;;;5037454;28;19962;-79
2021/10/31 11:55:25;;;;;;;;;;;25.20;68.60;;;;;;5036991;28;20365;-78
2021/10/31 11:57:55;;;;;;;;;;;25.90;60.40;;;;;;5035491;28;20000;-79
2021/10/31 12:00:25;;;;;;;;;;;26.00;59.10;;;;;;5036677;28;19944;-78
2021/10/31 12:02:52;;;;;;;;;;;23.80;59.40;;;;;;5051883;28;19912;-77
2021/10/31 12:05:39;;;;;;;;;;;20.40;66.80;;;;;;5034959;28;20294;-77
2021/10/31 12:08:05;;;;;;;;;;;18.70;73.40;;;;;;5036510;28;19996;-76
2021/10/31 12:10:32;;;;;;;;;;;18.10;75.40;;;;;;5036198;28;20285;-78
2021/10/31 12:13:11;;;;;;;;;;;18.60;75.00;;;;;;5036324;28;20380;-77
2021/10/31 12:15:37;;;;;;;;;;;22.90;67.10;;;;;;5036350;28;19909;-76
2021/10/31 12:18:08;;;;;;;;;;;25.50;57.30;;;;;;5051604;28;20309;-78
2021/10/31 12:20:46;;;;;;;;;;;27.40;56.40;;;;;;5036410;28;19905;-78
2021/10/31 12:23:19;;;;;;;;;;;28.70;53.50;;;;;;5035047;28;19909;-79
2021/10/31 12:25:45;;;;;;;;;;;30.30;51.70;;;;;;5034988;28;19905;-79
2021/10/31 12:28:30;;;;;;;;;;;29.20;48.80;;;;;;5051507;28;19905;-77
2021/10/31 12:31:16;;;;;;;;;;;28.70;49.50;;;;;;5036389;28;19943;-77
2021/10/31 12:34:00;;;;;;;;;;;29.30;49.00;;;;;;5036073;28;19959;-78
2021/10/31 12:36:29;;;;;;;;;;;28.30;49.60;;;;;;5036051;28;19905;-79
2021/10/31 12:38:55;;;;;;;;;;;30.80;48.90;;;;;;5036122;28;20374;-78
2021/10/31 12:41:22;;;;;;;;;;;28.50;47.80;;;;;;5036056;28;19956;-78
2021/10/31 12:43:50;;;;;;;;;;;29.10;49.10;;;;;;5035924;28;19905;-78
2021/10/31 12:46:21;;;;;;;;;;;28.10;49.50;;;;;;5034585;28;20361;-78
2021/10/31 12:48:52;;;;;;;;;;;28.70;48.40;;;;;;5051199;28;19912;-78
2021/10/31 12:51:19;;;;;;;;;;;27.60;47.10;;;;;;5035736;28;19930;-78
2021/10/31 12:53:45;;;;;;;;;;;26.60;49.70;;;;;;5035677;28;19905;-77
2021/10/31 12:56:12;;;;;;;;;;;27.60;49.50;;;;;;5034807;28;19905;-78
2021/10/31 12:58:38;;;;;;;;;;;26.70;48.90;;;;;;5035632;28;19909;-78
2021/10/31 13:01:03;;;;;;;;;;;27.20;47.80;;;;;;5034223;28;20280;-79
2021/10/31 13:03:29;;;;;;;;;;;26.30;48.40;;;;;;5035531;28;19909;-79
2021/10/31 13:05:55;;;;;;;;;;;26.70;51.20;;;;;;5035471;28;19905;-79
2021/10/31 13:08:21;;;;;;;;;;;26.30;50.40;;;;;;5035288;28;19905;-79
2021/10/31 13:10:51;;;;;;;;;;;25.10;51.10;;;;;;5035089;28;20304;-79
2021/10/31 13:13:19;;;;;;;;;;;24.90;52.40;;;;;;5035270;28;19937;-79
2021/10/31 13:15:48;;;;;;;;;;;25.50;51.50;;;;;;5035191;28;19956;-79
2021/10/31 13:18:21;;;;;;;;;;;25.10;51.00;;;;;;5035375;28;19916;-79
2021/10/31 13:20:50;;;;;;;;;;;24.00;54.50;;;;;;5033613;28;19927;-79
2021/10/31 13:23:18;;;;;;;;;;;24.90;53.20;;;;;;5035054;28;19905;-78
2021/10/31 13:25:58;;;;;;;;;;;25.20;52.90;;;;;;5035014;28;19932;-77
2021/10/31 13:28:32;;;;;;;;;;;23.20;56.60;;;;;;5035087;28;19905;-78
2021/10/31 13:31:05;;;;;;;;;;;21.20;59.70;;;;;;5034894;28;20409;-78
2021/10/31 13:33:33;;;;;;;;;;;20.00;62.70;;;;;;5033549;28;19912;-77
2021/10/31 13:36:04;;;;;;;;;;;19.30;65.50;;;;;;5034783;28;19955;-79
2021/10/31 13:38:43;;;;;;;;;;;19.20;66.90;;;;;;5034698;28;19912;-78
2021/10/31 13:41:08;;;;;;;;;;;19.10;67.60;;;;;;5034786;28;19913;-78
2021/10/31 13:43:34;;;;;;;;;;;20.00;67.30;;;;;;5034828;28;20350;-79
2021/10/31 13:46:00;;;;;;;;;;;24.30;60.50;;;;;;5034648;28;19955;-79
2021/10/31 13:48:29;;;;;;;;;;;26.40;56.00;;;;;;5034764;28;19948;-80
2021/10/31 13:51:14;;;;;;;;;;;27.40;53.90;;;;;;5034596;28;19905;-80
2021/10/31 13:53:39;;;;;;;;;;;27.40;52.70;;;;;;5034715;28;20440;-78
2021/10/31 13:56:05;;;;;;;;;;;26.70;50.90;;;;;;5033158;28;20285;-79
2021/10/31 13:58:31;;;;;;;;;;;25.30;54.20;;;;;;5034380;28;19958;-79
2021/10/31 14:00:57;;;;;;;;;;;25.10;52.10;;;;;;5049633;28;19971;-79
2021/10/31 14:03:27;;;;;;;;;;;22.40;56.80;;;;;;5034195;28;20375;-77
2021/10/31 14:05:53;;;;;;;;;;;20.20;60.90;;;;;;5034527;28;19909;-79
2021/10/31 14:08:19;;;;;;;;;;;22.50;58.80;;;;;;5032580;28;19905;-79
2021/10/31 14:10:46;;;;;;;;;;;20.90;59.60;;;;;;5033863;28;20374;-78
2021/10/31 14:13:17;;;;;;;;;;;21.30;61.00;;;;;;5032867;28;19909;-77
2021/10/31 14:15:44;;;;;;;;;;;22.30;57.00;;;;;;5034074;28;19905;-79
2021/10/31 14:18:11;;;;;;;;;;;21.70;58.50;;;;;;5033935;28;20365;-79
2021/10/31 14:20:38;;;;;;;;;;;23.80;55.90;;;;;;5034061;28;19955;-79